sensor_id;sensor_type;location;lat;lon;timestamp;pressure;altitude;pressure_sealevel;temperature;humidity
43707;BME280;61348;53.392;-6.248;2023-05-15T00:00:34;101608.38;;;9.80;64.63
43707;BME280;61348;53.392;-6.248;2023-05-15T00:03:03;101610.66;;;9.78;64.71
43707;BME280;61348;53.392;-6.248;2023-05-15T00:05:30;101613.56;;;9.73;64.66
43707;BME280;61348;53.392;-6.248;2023-05-15T00:07:57;101615.63;;;9.67;64.88
43707;BME280;61348;53.392;-6.248;2023-05-15T00:10:24;101617.72;;;9.62;65.12
43707;BME280;61348;53.392;-6.248;2023-05-15T00:12:50;101610.38;;;9.57;65.25
43707;BME280;61348;53.392;-6.248;2023-05-15T00:15:17;101613.44;;;9.56;65.22
43707;BME280;61348;53.392;-6.248;2023-05-15T00:17:44;101615.72;;;9.54;65.34
43707;BME280;61348;53.392;-6.248;2023-05-15T00:20:11;101617.66;;;9.53;65.53
43707;BME280;61348;53.392;-6.248;2023-05-15T00:22:39;101610.81;;;9.51;65.73
43707;BME280;61348;53.392;-6.248;2023-05-15T00:25:06;101616.34;;;9.51;65.80
43707;BME280;61348;53.392;-6.248;2023-05-15T00:27:33;101615.88;;;9.49;65.85
43707;BME280;61348;53.392;-6.248;2023-05-15T00:30:00;101613.91;;;9.49;65.86
43707;BME280;61348;53.392;-6.248;2023-05-15T00:32:26;101623.97;;;9.45;66.22
43707;BME280;61348;53.392;-6.248;2023-05-15T00:34:53;101614.34;;;9.43;66.41
43707;BME280;61348;53.392;-6.248;2023-05-15T00:37:20;101620.22;;;9.41;66.59
43707;BME280;61348;53.392;-6.248;2023-05-15T00:39:48;101626.84;;;9.40;66.61
43707;BME280;61348;53.392;-6.248;2023-05-15T00:42:16;101629.94;;;9.39;66.65
43707;BME280;61348;53.392;-6.248;2023-05-15T00:44:43;101627.81;;;9.36;66.77
43707;BME280;61348;53.392;-6.248;2023-05-15T00:47:11;101625.19;;;9.31;67.06
43707;BME280;61348;53.392;-6.248;2023-05-15T00:49:40;101625.81;;;9.28;67.25
43707;BME280;61348;53.392;-6.248;2023-05-15T00:52:09;101621.94;;;9.29;67.22
43707;BME280;61348;53.392;-6.248;2023-05-15T00:54:36;101622.56;;;9.26;67.32
43707;BME280;61348;53.392;-6.248;2023-05-15T00:57:04;101625.63;;;9.24;67.39
43707;BME280;61348;53.392;-6.248;2023-05-15T00:59:32;101630.66;;;9.22;67.56
43707;BME280;61348;53.392;-6.248;2023-05-15T01:02:00;101628.22;;;9.21;67.75
43707;BME280;61348;53.392;-6.248;2023-05-15T01:04:28;101631.28;;;9.19;67.60
43707;BME280;61348;53.392;-6.248;2023-05-15T01:06:55;101639.69;;;9.14;67.77
43707;BME280;61348;53.392;-6.248;2023-05-15T01:09:26;101632.22;;;9.14;67.93
43707;BME280;61348;53.392;-6.248;2023-05-15T01:11:56;101639.53;;;9.10;67.99
43707;BME280;61348;53.392;-6.248;2023-05-15T01:14:24;101632.97;;;9.06;68.33
43707;BME280;61348;53.392;-6.248;2023-05-15T01:16:52;101629.72;;;9.04;68.32
43707;BME280;61348;53.392;-6.248;2023-05-15T01:19:19;101638.00;;;9.04;68.53
43707;BME280;61348;53.392;-6.248;2023-05-15T01:22:03;101639.63;;;9.05;68.80
43707;BME280;61348;53.392;-6.248;2023-05-15T01:24:59;101636.84;;;9.05;68.57
43707;BME280;61348;53.392;-6.248;2023-05-15T01:27:33;101631.84;;;9.07;68.63
43707;BME280;61348;53.392;-6.248;2023-05-15T01:30:15;101641.75;;;9.08;68.63
43707;BME280;61348;53.392;-6.248;2023-05-15T01:32:56;101639.31;;;9.07;68.66
43707;BME280;61348;53.392;-6.248;2023-05-15T01:35:42;101646.91;;;9.01;68.76
43707;BME280;61348;53.392;-6.248;2023-05-15T01:38:25;101641.19;;;8.98;69.05
43707;BME280;61348;53.392;-6.248;2023-05-15T01:41:01;101637.94;;;8.96;68.92
43707;BME280;61348;53.392;-6.248;2023-05-15T01:43:31;101653.78;;;8.90;69.12
43707;BME280;61348;53.392;-6.248;2023-05-15T01:45:59;101650.03;;;8.86;69.15
43707;BME280;61348;53.392;-6.248;2023-05-15T01:48:27;101653.41;;;8.83;69.54
43707;BME280;61348;53.392;-6.248;2023-05-15T01:50:58;101651.28;;;8.80;69.71
43707;BME280;61348;53.392;-6.248;2023-05-15T01:53:27;101652.50;;;8.74;69.87
43707;BME280;61348;53.392;-6.248;2023-05-15T01:55:54;101647.59;;;8.71;69.77
43707;BME280;61348;53.392;-6.248;2023-05-15T01:58:24;101656.53;;;8.68;70.00
43707;BME280;61348;53.392;-6.248;2023-05-15T02:00:52;101656.63;;;8.63;69.91
43707;BME280;61348;53.392;-6.248;2023-05-15T02:03:19;101659.69;;;8.62;70.23
43707;BME280;61348;53.392;-6.248;2023-05-15T02:05:47;101660.53;;;8.62;70.13
43707;BME280;61348;53.392;-6.248;2023-05-15T02:08:15;101649.50;;;8.62;70.16
43707;BME280;61348;53.392;-6.248;2023-05-15T02:10:42;101650.94;;;8.60;70.46
43707;BME280;61348;53.392;-6.248;2023-05-15T02:13:10;101647.34;;;8.59;70.32
43707;BME280;61348;53.392;-6.248;2023-05-15T02:15:38;101648.44;;;8.58;70.55
43707;BME280;61348;53.392;-6.248;2023-05-15T02:18:05;101652.34;;;8.57;70.38
43707;BME280;61348;53.392;-6.248;2023-05-15T02:20:31;101651.34;;;8.53;70.62
43707;BME280;61348;53.392;-6.248;2023-05-15T02:22:58;101656.47;;;8.46;70.65
43707;BME280;61348;53.392;-6.248;2023-05-15T02:25:33;101640.53;;;8.43;70.87
43707;BME280;61348;53.392;-6.248;2023-05-15T02:28:05;101638.25;;;8.45;71.01
43707;BME280;61348;53.392;-6.248;2023-05-15T02:30:51;101652.59;;;8.47;70.85
43707;BME280;61348;53.392;-6.248;2023-05-15T02:33:39;101644.31;;;8.47;71.07
43707;BME280;61348;53.392;-6.248;2023-05-15T02:36:11;101649.28;;;8.45;70.86
43707;BME280;61348;53.392;-6.248;2023-05-15T02:38:51;101658.50;;;8.40;70.75
43707;BME280;61348;53.392;-6.248;2023-05-15T02:41:20;101646.66;;;8.40;71.01
43707;BME280;61348;53.392;-6.248;2023-05-15T02:43:49;101664.97;;;8.36;71.01
43707;BME280;61348;53.392;-6.248;2023-05-15T02:46:18;101652.78;;;8.23;71.25
43707;BME280;61348;53.392;-6.248;2023-05-15T02:48:47;101665.44;;;8.24;71.18
43707;BME280;61348;53.392;-6.248;2023-05-15T02:51:14;101659.72;;;8.21;71.45
43707;BME280;61348;53.392;-6.248;2023-05-15T02:53:42;101658.69;;;8.17;71.42
43707;BME280;61348;53.392;-6.248;2023-05-15T02:56:09;101670.94;;;8.11;71.55
43707;BME280;61348;53.392;-6.248;2023-05-15T02:58:36;101666.69;;;8.05;71.95
43707;BME280;61348;53.392;-6.248;2023-05-15T03:01:03;101669.94;;;8.07;71.89
43707;BME280;61348;53.392;-6.248;2023-05-15T03:03:30;101670.22;;;8.05;72.00
43707;BME280;61348;53.392;-6.248;2023-05-15T03:05:57;101668.91;;;8.03;72.02
43707;BME280;61348;53.392;-6.248;2023-05-15T03:08:28;101678.09;;;7.98;72.14
43707;BME280;61348;53.392;-6.248;2023-05-15T03:10:54;101670.94;;;7.97;72.32
43707;BME280;61348;53.392;-6.248;2023-05-15T03:13:21;101666.84;;;7.94;72.51
43707;BME280;61348;53.392;-6.248;2023-05-15T03:15:48;101673.78;;;7.92;72.50
43707;BME280;61348;53.392;-6.248;2023-05-15T03:18:15;101679.91;;;7.89;72.85
43707;BME280;61348;53.392;-6.248;2023-05-15T03:20:47;101673.91;;;7.87;72.63
43707;BME280;61348;53.392;-6.248;2023-05-15T03:23:14;101674.22;;;7.85;72.92
43707;BME280;61348;53.392;-6.248;2023-05-15T03:25:41;101679.72;;;7.85;72.91
43707;BME280;61348;53.392;-6.248;2023-05-15T03:28:08;101679.91;;;7.89;72.88
43707;BME280;61348;53.392;-6.248;2023-05-15T03:30:35;101684.03;;;7.91;72.99
43707;BME280;61348;53.392;-6.248;2023-05-15T03:33:01;101679.41;;;7.87;73.06
43707;BME280;61348;53.392;-6.248;2023-05-15T03:35:32;101686.06;;;7.86;73.00
43707;BME280;61348;53.392;-6.248;2023-05-15T03:37:59;101688.00;;;7.85;73.04
43707;BME280;61348;53.392;-6.248;2023-05-15T03:40:28;101688.59;;;7.82;73.07
43707;BME280;61348;53.392;-6.248;2023-05-15T03:42:55;101692.47;;;7.81;73.14
43707;BME280;61348;53.392;-6.248;2023-05-15T03:45:21;101690.53;;;7.82;73.42
43707;BME280;61348;53.392;-6.248;2023-05-15T03:47:49;101687.56;;;7.78;73.53
43707;BME280;61348;53.392;-6.248;2023-05-15T03:50:16;101689.31;;;7.74;73.49
43707;BME280;61348;53.392;-6.248;2023-05-15T03:52:43;101695.13;;;7.73;73.57
43707;BME280;61348;53.392;-6.248;2023-05-15T03:55:10;101693.56;;;7.67;73.48
43707;BME280;61348;53.392;-6.248;2023-05-15T03:57:37;101682.56;;;7.67;73.56
43707;BME280;61348;53.392;-6.248;2023-05-15T04:00:04;101686.22;;;7.62;73.86
43707;BME280;61348;53.392;-6.248;2023-05-15T04:02:36;101681.31;;;7.59;73.90
43707;BME280;61348;53.392;-6.248;2023-05-15T04:05:03;101691.78;;;7.57;74.06
43707;BME280;61348;53.392;-6.248;2023-05-15T04:07:32;101683.25;;;7.59;74.13
43707;BME280;61348;53.392;-6.248;2023-05-15T04:09:59;101687.94;;;7.58;74.07
43707;BME280;61348;53.392;-6.248;2023-05-15T04:12:28;101686.00;;;7.59;73.99
43707;BME280;61348;53.392;-6.248;2023-05-15T04:15:04;101681.41;;;7.54;74.00
43707;BME280;61348;53.392;-6.248;2023-05-15T04:17:38;101694.97;;;7.51;74.02
43707;BME280;61348;53.392;-6.248;2023-05-15T04:20:05;101686.78;;;7.46;74.16
43707;BME280;61348;53.392;-6.248;2023-05-15T04:22:32;101683.50;;;7.44;74.36
43707;BME280;61348;53.392;-6.248;2023-05-15T04:24:59;101687.06;;;7.44;74.33
43707;BME280;61348;53.392;-6.248;2023-05-15T04:27:26;101681.56;;;7.44;74.23
43707;BME280;61348;53.392;-6.248;2023-05-15T04:29:53;101682.97;;;7.42;74.41
43707;BME280;61348;53.392;-6.248;2023-05-15T04:32:20;101681.44;;;7.35;74.60
43707;BME280;61348;53.392;-6.248;2023-05-15T04:34:47;101683.47;;;7.30;74.46
43707;BME280;61348;53.392;-6.248;2023-05-15T04:37:14;101685.16;;;7.26;74.61
43707;BME280;61348;53.392;-6.248;2023-05-15T04:39:41;101694.56;;;7.25;74.84
43707;BME280;61348;53.392;-6.248;2023-05-15T04:42:07;101682.72;;;7.24;74.70
43707;BME280;61348;53.392;-6.248;2023-05-15T04:44:34;101689.56;;;7.27;74.88
43707;BME280;61348;53.392;-6.248;2023-05-15T04:47:01;101680.78;;;7.25;74.88
43707;BME280;61348;53.392;-6.248;2023-05-15T04:49:28;101684.16;;;7.22;74.61
43707;BME280;61348;53.392;-6.248;2023-05-15T04:51:54;101682.59;;;7.16;74.89
43707;BME280;61348;53.392;-6.248;2023-05-15T04:54:21;101678.81;;;7.12;75.33
43707;BME280;61348;53.392;-6.248;2023-05-15T04:56:48;101682.91;;;7.14;75.20
43707;BME280;61348;53.392;-6.248;2023-05-15T04:59:14;101691.25;;;7.09;75.14
43707;BME280;61348;53.392;-6.248;2023-05-15T05:01:43;101690.69;;;7.07;75.40
43707;BME280;61348;53.392;-6.248;2023-05-15T05:04:11;101686.69;;;7.00;75.76
43707;BME280;61348;53.392;-6.248;2023-05-15T05:06:37;101684.25;;;6.98;75.66
43707;BME280;61348;53.392;-6.248;2023-05-15T05:09:04;101688.63;;;6.99;75.88
43707;BME280;61348;53.392;-6.248;2023-05-15T05:11:31;101683.94;;;7.00;75.80
43707;BME280;61348;53.392;-6.248;2023-05-15T05:13:58;101696.88;;;6.99;75.60
43707;BME280;61348;53.392;-6.248;2023-05-15T05:16:24;101701.28;;;7.00;75.83
43707;BME280;61348;53.392;-6.248;2023-05-15T05:18:51;101696.00;;;7.04;76.12
43707;BME280;61348;53.392;-6.248;2023-05-15T05:21:18;101703.72;;;7.02;75.75
43707;BME280;61348;53.392;-6.248;2023-05-15T05:23:45;101703.44;;;7.03;76.14
43707;BME280;61348;53.392;-6.248;2023-05-15T05:26:12;101700.91;;;7.07;76.15
43707;BME280;61348;53.392;-6.248;2023-05-15T05:28:39;101697.34;;;7.06;76.04
43707;BME280;61348;53.392;-6.248;2023-05-15T05:31:06;101705.38;;;7.03;76.15
43707;BME280;61348;53.392;-6.248;2023-05-15T05:33:33;101711.47;;;7.00;76.17
43707;BME280;61348;53.392;-6.248;2023-05-15T05:36:00;101704.25;;;7.04;76.19
43707;BME280;61348;53.392;-6.248;2023-05-15T05:38:26;101708.88;;;7.08;76.32
43707;BME280;61348;53.392;-6.248;2023-05-15T05:40:53;101717.03;;;7.13;76.52
43707;BME280;61348;53.392;-6.248;2023-05-15T05:43:20;101717.28;;;7.17;76.62
43707;BME280;61348;53.392;-6.248;2023-05-15T05:45:47;101710.63;;;7.18;76.49
43707;BME280;61348;53.392;-6.248;2023-05-15T05:48:13;101714.44;;;7.22;76.13
43707;BME280;61348;53.392;-6.248;2023-05-15T05:50:40;101718.53;;;7.24;76.53
43707;BME280;61348;53.392;-6.248;2023-05-15T05:53:07;101713.97;;;7.33;76.42
43707;BME280;61348;53.392;-6.248;2023-05-15T05:55:34;101718.28;;;7.40;76.47
43707;BME280;61348;53.392;-6.248;2023-05-15T05:58:01;101717.09;;;7.46;76.44
43707;BME280;61348;53.392;-6.248;2023-05-15T06:00:34;101723.34;;;7.51;76.40
43707;BME280;61348;53.392;-6.248;2023-05-15T06:03:00;101729.25;;;7.58;76.71
43707;BME280;61348;53.392;-6.248;2023-05-15T06:05:28;101720.91;;;7.63;76.53
43707;BME280;61348;53.392;-6.248;2023-05-15T06:07:55;101725.22;;;7.69;76.82
43707;BME280;61348;53.392;-6.248;2023-05-15T06:10:22;101726.47;;;7.77;76.44
43707;BME280;61348;53.392;-6.248;2023-05-15T06:12:49;101729.13;;;7.82;76.62
43707;BME280;61348;53.392;-6.248;2023-05-15T06:15:15;101728.75;;;7.88;76.50
43707;BME280;61348;53.392;-6.248;2023-05-15T06:17:42;101725.06;;;7.93;76.21
43707;BME280;61348;53.392;-6.248;2023-05-15T06:20:09;101727.50;;;7.94;76.66
43707;BME280;61348;53.392;-6.248;2023-05-15T06:22:37;101729.56;;;8.03;76.57
43707;BME280;61348;53.392;-6.248;2023-05-15T06:25:05;101732.22;;;8.08;76.58
43707;BME280;61348;53.392;-6.248;2023-05-15T06:27:33;101727.75;;;8.12;76.54
43707;BME280;61348;53.392;-6.248;2023-05-15T06:29:59;101732.66;;;8.15;76.33
43707;BME280;61348;53.392;-6.248;2023-05-15T06:32:28;101729.81;;;8.20;76.37
43707;BME280;61348;53.392;-6.248;2023-05-15T06:34:54;101722.53;;;8.24;76.49
43707;BME280;61348;53.392;-6.248;2023-05-15T06:37:21;101723.00;;;8.31;76.34
43707;BME280;61348;53.392;-6.248;2023-05-15T06:39:48;101718.00;;;8.33;76.16
43707;BME280;61348;53.392;-6.248;2023-05-15T06:42:15;101714.13;;;8.34;76.19
43707;BME280;61348;53.392;-6.248;2023-05-15T06:44:41;101716.25;;;8.37;76.47
43707;BME280;61348;53.392;-6.248;2023-05-15T06:47:08;101722.69;;;8.46;76.31
43707;BME280;61348;53.392;-6.248;2023-05-15T06:49:35;101715.34;;;8.55;76.18
43707;BME280;61348;53.392;-6.248;2023-05-15T06:52:02;101719.94;;;8.60;76.27
43707;BME280;61348;53.392;-6.248;2023-05-15T06:54:29;101716.56;;;8.63;76.03
43707;BME280;61348;53.392;-6.248;2023-05-15T06:56:55;101719.00;;;8.64;76.08
43707;BME280;61348;53.392;-6.248;2023-05-15T06:59:22;101713.06;;;8.71;76.04
43707;BME280;61348;53.392;-6.248;2023-05-15T07:01:49;101720.31;;;8.80;76.02
43707;BME280;61348;53.392;-6.248;2023-05-15T07:04:16;101722.44;;;8.83;75.96
43707;BME280;61348;53.392;-6.248;2023-05-15T07:06:42;101727.53;;;8.90;76.00
43707;BME280;61348;53.392;-6.248;2023-05-15T07:09:11;101730.38;;;8.98;75.93
43707;BME280;61348;53.392;-6.248;2023-05-15T07:11:38;101726.88;;;9.06;75.95
43707;BME280;61348;53.392;-6.248;2023-05-15T07:14:06;101726.78;;;9.11;75.94
43707;BME280;61348;53.392;-6.248;2023-05-15T07:16:33;101731.56;;;9.19;75.88
43707;BME280;61348;53.392;-6.248;2023-05-15T07:19:00;101735.22;;;9.29;75.96
43707;BME280;61348;53.392;-6.248;2023-05-15T07:21:29;101740.50;;;9.39;75.97
43707;BME280;61348;53.392;-6.248;2023-05-15T07:23:57;101735.84;;;9.48;76.11
43707;BME280;61348;53.392;-6.248;2023-05-15T07:26:23;101755.75;;;9.58;76.33
43707;BME280;61348;53.392;-6.248;2023-05-15T07:29:04;101756.53;;;9.72;76.61
43707;BME280;61348;53.392;-6.248;2023-05-15T07:31:30;101749.94;;;9.82;76.89
43707;BME280;61348;53.392;-6.248;2023-05-15T07:33:59;101757.81;;;9.97;77.44
43707;BME280;61348;53.392;-6.248;2023-05-15T07:36:25;101756.09;;;10.10;77.96
43707;BME280;61348;53.392;-6.248;2023-05-15T07:38:52;101758.66;;;10.28;78.41
43707;BME280;61348;53.392;-6.248;2023-05-15T07:41:19;101760.72;;;10.45;78.68
43707;BME280;61348;53.392;-6.248;2023-05-15T07:43:46;101769.88;;;10.63;79.35
43707;BME280;61348;53.392;-6.248;2023-05-15T07:46:13;101767.66;;;10.82;79.73
43707;BME280;61348;53.392;-6.248;2023-05-15T07:48:39;101769.34;;;11.00;80.50
43707;BME280;61348;53.392;-6.248;2023-05-15T07:51:07;101771.00;;;11.18;81.28
43707;BME280;61348;53.392;-6.248;2023-05-15T07:53:33;101762.69;;;11.44;82.17
43707;BME280;61348;53.392;-6.248;2023-05-15T07:56:00;101769.72;;;11.76;83.27
43707;BME280;61348;53.392;-6.248;2023-05-15T07:58:27;101764.56;;;12.20;84.44
43707;BME280;61348;53.392;-6.248;2023-05-15T08:00:54;101766.13;;;12.76;83.63
43707;BME280;61348;53.392;-6.248;2023-05-15T08:03:20;101766.75;;;13.32;82.61
43707;BME280;61348;53.392;-6.248;2023-05-15T08:05:47;101760.25;;;14.02;81.18
43707;BME280;61348;53.392;-6.248;2023-05-15T08:08:14;101764.22;;;14.82;78.18
43707;BME280;61348;53.392;-6.248;2023-05-15T08:10:41;101769.16;;;15.65;74.96
43707;BME280;61348;53.392;-6.248;2023-05-15T08:13:08;101770.75;;;16.37;71.65
43707;BME280;61348;53.392;-6.248;2023-05-15T08:15:34;101769.84;;;17.11;68.72
43707;BME280;61348;53.392;-6.248;2023-05-15T08:18:07;101776.00;;;17.71;65.61
43707;BME280;61348;53.392;-6.248;2023-05-15T08:20:33;101776.63;;;18.02;62.92
43707;BME280;61348;53.392;-6.248;2023-05-15T08:23:00;101779.84;;;18.46;60.45
43707;BME280;61348;53.392;-6.248;2023-05-15T08:25:27;101781.31;;;18.82;58.67
43707;BME280;61348;53.392;-6.248;2023-05-15T08:27:54;101784.31;;;19.22;56.43
43707;BME280;61348;53.392;-6.248;2023-05-15T08:30:20;101779.84;;;19.44;55.30
43707;BME280;61348;53.392;-6.248;2023-05-15T08:32:47;101793.13;;;19.77;52.96
43707;BME280;61348;53.392;-6.248;2023-05-15T08:35:14;101791.50;;;20.09;52.12
43707;BME280;61348;53.392;-6.248;2023-05-15T08:37:41;101788.97;;;20.34;50.91
43707;BME280;61348;53.392;-6.248;2023-05-15T08:40:09;101789.28;;;20.65;49.76
43707;BME280;61348;53.392;-6.248;2023-05-15T08:42:43;101783.88;;;20.90;49.15
43707;BME280;61348;53.392;-6.248;2023-05-15T08:45:12;101789.53;;;20.97;48.34
43707;BME280;61348;53.392;-6.248;2023-05-15T08:47:40;101796.94;;;21.12;47.13
43707;BME280;61348;53.392;-6.248;2023-05-15T08:50:11;101797.16;;;21.51;46.70
43707;BME280;61348;53.392;-6.248;2023-05-15T08:52:42;101787.56;;;21.59;47.90
43707;BME280;61348;53.392;-6.248;2023-05-15T08:55:10;101797.19;;;21.55;47.20
43707;BME280;61348;53.392;-6.248;2023-05-15T08:57:38;101798.84;;;21.63;45.82
43707;BME280;61348;53.392;-6.248;2023-05-15T09:00:07;101798.03;;;21.62;45.07
43707;BME280;61348;53.392;-6.248;2023-05-15T09:02:35;101798.16;;;21.18;44.21
43707;BME280;61348;53.392;-6.248;2023-05-15T09:05:03;101793.16;;;19.80;45.38
43707;BME280;61348;53.392;-6.248;2023-05-15T09:07:32;101793.22;;;19.28;46.01
43707;BME280;61348;53.392;-6.248;2023-05-15T09:10:02;101789.34;;;18.83;46.03
43707;BME280;61348;53.392;-6.248;2023-05-15T09:12:32;101785.03;;;19.42;46.38
43707;BME280;61348;53.392;-6.248;2023-05-15T09:15:16;101787.69;;;20.24;45.24
43707;BME280;61348;53.392;-6.248;2023-05-15T09:17:44;101795.94;;;20.91;43.93
43707;BME280;61348;53.392;-6.248;2023-05-15T09:20:34;101790.66;;;20.42;43.67
43707;BME280;61348;53.392;-6.248;2023-05-15T09:23:03;101789.56;;;19.50;43.97
43707;BME280;61348;53.392;-6.248;2023-05-15T09:25:39;101789.75;;;19.12;44.76
43707;BME280;61348;53.392;-6.248;2023-05-15T09:28:08;101785.94;;;19.79;44.47
43707;BME280;61348;53.392;-6.248;2023-05-15T09:30:40;101793.31;;;20.68;43.42
43707;BME280;61348;53.392;-6.248;2023-05-15T09:33:08;101801.16;;;21.43;42.75
43707;BME280;61348;53.392;-6.248;2023-05-15T09:35:37;101798.25;;;22.08;41.61
43707;BME280;61348;53.392;-6.248;2023-05-15T09:38:09;101792.69;;;22.54;40.96
43707;BME280;61348;53.392;-6.248;2023-05-15T09:40:37;101790.31;;;22.70;40.62
43707;BME280;61348;53.392;-6.248;2023-05-15T09:43:04;101791.94;;;22.82;39.74
43707;BME280;61348;53.392;-6.248;2023-05-15T09:45:31;101799.91;;;22.27;40.02
43707;BME280;61348;53.392;-6.248;2023-05-15T09:48:05;101800.91;;;21.08;40.52
43707;BME280;61348;53.392;-6.248;2023-05-15T09:50:34;101783.03;;;19.72;42.04
43707;BME280;61348;53.392;-6.248;2023-05-15T09:53:02;101784.69;;;18.68;43.06
43707;BME280;61348;53.392;-6.248;2023-05-15T09:55:33;101776.03;;;17.74;44.22
43707;BME280;61348;53.392;-6.248;2023-05-15T09:58:13;101782.47;;;17.05;45.73
43707;BME280;61348;53.392;-6.248;2023-05-15T10:00:41;101781.63;;;16.70;46.31
43707;BME280;61348;53.392;-6.248;2023-05-15T10:03:17;101776.09;;;17.04;46.27
43707;BME280;61348;53.392;-6.248;2023-05-15T10:05:45;101775.50;;;18.07;45.07
43707;BME280;61348;53.392;-6.248;2023-05-15T10:08:12;101777.78;;;19.15;43.87
43707;BME280;61348;53.392;-6.248;2023-05-15T10:10:41;101777.44;;;19.46;42.34
43707;BME280;61348;53.392;-6.248;2023-05-15T10:13:10;101786.09;;;19.08;41.88
43707;BME280;61348;53.392;-6.248;2023-05-15T10:15:37;101783.31;;;19.08;42.83
43707;BME280;61348;53.392;-6.248;2023-05-15T10:18:06;101788.47;;;19.32;41.86
43707;BME280;61348;53.392;-6.248;2023-05-15T10:20:34;101780.06;;;18.79;42.72
43707;BME280;61348;53.392;-6.248;2023-05-15T10:23:03;101786.53;;;18.19;43.54
43707;BME280;61348;53.392;-6.248;2023-05-15T10:25:41;101777.75;;;17.79;44.31
43707;BME280;61348;53.392;-6.248;2023-05-15T10:28:11;101781.59;;;17.71;43.78
43707;BME280;61348;53.392;-6.248;2023-05-15T10:30:38;101792.81;;;17.36;44.15
43707;BME280;61348;53.392;-6.248;2023-05-15T10:33:05;101785.56;;;17.00;44.58
43707;BME280;61348;53.392;-6.248;2023-05-15T10:35:33;101777.56;;;16.67;45.25
43707;BME280;61348;53.392;-6.248;2023-05-15T10:38:04;101780.41;;;16.39;45.80
43707;BME280;61348;53.392;-6.248;2023-05-15T10:40:33;101792.91;;;16.14;46.80
43707;BME280;61348;53.392;-6.248;2023-05-15T10:43:02;101795.31;;;16.00;47.12
43707;BME280;61348;53.392;-6.248;2023-05-15T10:45:30;101800.00;;;15.96;47.42
43707;BME280;61348;53.392;-6.248;2023-05-15T10:47:58;101800.63;;;16.05;47.58
43707;BME280;61348;53.392;-6.248;2023-05-15T10:50:26;101805.16;;;16.10;47.85
43707;BME280;61348;53.392;-6.248;2023-05-15T10:52:54;101797.50;;;16.07;47.60
43707;BME280;61348;53.392;-6.248;2023-05-15T10:55:21;101803.81;;;16.04;48.15
43707;BME280;61348;53.392;-6.248;2023-05-15T10:57:48;101800.13;;;16.15;48.27
43707;BME280;61348;53.392;-6.248;2023-05-15T11:02:49;101807.47;;;16.35;47.84
43707;BME280;61348;53.392;-6.248;2023-05-15T11:05:22;101811.81;;;16.49;47.77
43707;BME280;61348;53.392;-6.248;2023-05-15T11:08:25;101807.63;;;16.86;47.28
43707;BME280;61348;53.392;-6.248;2023-05-15T11:10:52;101808.28;;;17.14;46.92
43707;BME280;61348;53.392;-6.248;2023-05-15T11:13:19;101804.38;;;17.19;46.61
43707;BME280;61348;53.392;-6.248;2023-05-15T11:15:47;101811.81;;;17.11;46.46
43707;BME280;61348;53.392;-6.248;2023-05-15T11:18:15;101811.38;;;17.09;46.52
43707;BME280;61348;53.392;-6.248;2023-05-15T11:23:21;101804.38;;;17.19;46.24
43707;BME280;61348;53.392;-6.248;2023-05-15T11:25:52;101803.31;;;17.23;45.74
43707;BME280;61348;53.392;-6.248;2023-05-15T11:28:27;101793.91;;;17.16;45.90
43707;BME280;61348;53.392;-6.248;2023-05-15T11:31:05;101791.84;;;17.28;45.74
43707;BME280;61348;53.392;-6.248;2023-05-15T11:33:32;101802.06;;;17.55;45.41
43707;BME280;61348;53.392;-6.248;2023-05-15T11:35:59;101809.75;;;17.43;45.11
43707;BME280;61348;53.392;-6.248;2023-05-15T11:38:27;101798.00;;;17.18;45.38
43707;BME280;61348;53.392;-6.248;2023-05-15T11:40:55;101808.69;;;16.81;45.74
43707;BME280;61348;53.392;-6.248;2023-05-15T11:43:30;101810.84;;;16.57;46.51
43707;BME280;61348;53.392;-6.248;2023-05-15T11:46:08;101805.22;;;16.41;46.79
43707;BME280;61348;53.392;-6.248;2023-05-15T11:48:43;101803.31;;;16.29;46.59
43707;BME280;61348;53.392;-6.248;2023-05-15T11:51:18;101798.69;;;16.21;46.55
43707;BME280;61348;53.392;-6.248;2023-05-15T11:53:45;101801.75;;;16.16;46.01
43707;BME280;61348;53.392;-6.248;2023-05-15T11:56:20;101803.88;;;16.07;46.03
43707;BME280;61348;53.392;-6.248;2023-05-15T11:58:49;101799.16;;;16.23;46.06
43707;BME280;61348;53.392;-6.248;2023-05-15T12:01:16;101806.88;;;16.58;45.81
43707;BME280;61348;53.392;-6.248;2023-05-15T12:03:46;101795.59;;;17.01;45.79
43707;BME280;61348;53.392;-6.248;2023-05-15T12:06:13;101790.72;;;17.33;45.26
43707;BME280;61348;53.392;-6.248;2023-05-15T12:08:40;101792.72;;;17.32;44.60
43707;BME280;61348;53.392;-6.248;2023-05-15T12:11:09;101790.59;;;17.45;45.13
43707;BME280;61348;53.392;-6.248;2023-05-15T12:13:36;101791.75;;;17.59;44.78
43707;BME280;61348;53.392;-6.248;2023-05-15T12:16:03;101796.19;;;17.60;44.88
43707;BME280;61348;53.392;-6.248;2023-05-15T12:18:31;101795.53;;;17.51;44.74
43707;BME280;61348;53.392;-6.248;2023-05-15T12:20:59;101795.09;;;17.49;45.06
43707;BME280;61348;53.392;-6.248;2023-05-15T12:23:27;101799.72;;;17.57;45.26
43707;BME280;61348;53.392;-6.248;2023-05-15T12:26:00;101796.31;;;17.68;44.78
43707;BME280;61348;53.392;-6.248;2023-05-15T12:28:30;101795.13;;;17.88;44.37
43707;BME280;61348;53.392;-6.248;2023-05-15T12:30:57;101793.19;;;18.11;44.38
43707;BME280;61348;53.392;-6.248;2023-05-15T12:33:25;101797.16;;;18.29;44.00
43707;BME280;61348;53.392;-6.248;2023-05-15T12:35:55;101790.19;;;18.42;43.38
43707;BME280;61348;53.392;-6.248;2023-05-15T12:38:26;101791.34;;;18.60;43.16
43707;BME280;61348;53.392;-6.248;2023-05-15T12:40:53;101797.25;;;18.78;42.64
43707;BME280;61348;53.392;-6.248;2023-05-15T12:43:23;101787.09;;;18.93;42.10
43707;BME280;61348;53.392;-6.248;2023-05-15T12:45:54;101799.06;;;18.90;41.69
43707;BME280;61348;53.392;-6.248;2023-05-15T12:48:30;101794.84;;;18.76;41.39
43707;BME280;61348;53.392;-6.248;2023-05-15T12:51:05;101803.19;;;18.50;41.28
43707;BME280;61348;53.392;-6.248;2023-05-15T12:53:33;101795.75;;;18.61;41.41
43707;BME280;61348;53.392;-6.248;2023-05-15T12:56:00;101797.44;;;18.89;41.24
43707;BME280;61348;53.392;-6.248;2023-05-15T12:58:27;101803.47;;;19.17;41.24